Time;durP1;ratioP1;P1;durP2;ratioP2;P2;SDS_P1;SDS_P2;PMS_P1;PMS_P2;Temp;Humidity;BMP_temperature;BMP_pressure;BME280_temperature;BME280_humidity;BME280_pressure;Samples;Min_cycle;Max_cycle;Signal;HPM_P1;HPM_P2
2022/04/21 00:00:11;;;;;;;3.83;0.80;;;;;;;;;;5091796;28;20030;-74
2022/04/21 00:02:38;;;;;;;2.67;0.50;;;;;;;;;;5091501;28;20378;-75
2022/04/21 00:05:06;;;;;;;3.55;0.80;;;;;;;;;;5093011;28;20050;-75
2022/04/21 00:07:33;;;;;;;2.95;0.73;;;;;;;;;;5091891;28;20228;-75
2022/04/21 00:10:01;;;;;;;1.95;0.73;;;;;;;;;;5093012;28;20027;-76
2022/04/21 00:12:28;;;;;;;2.30;0.75;;;;;;;;;;5093016;28;20392;-75
2022/04/21 00:14:56;;;;;;;2.05;0.70;;;;;;;;;;5091732;28;20016;-75
2022/04/21 00:17:23;;;;;;;2.08;0.73;;;;;;;;;;5092949;28;20024;-74
2022/04/21 00:19:50;;;;;;;1.20;0.60;;;;;;;;;;5093204;28;20024;-73
2022/04/21 00:25:03;;;;;;;2.58;0.95;;;;;;;;;;5092750;28;20078;-73
2022/04/21 00:27:30;;;;;;;2.17;0.70;;;;;;;;;;5092726;28;20031;-74
2022/04/21 00:29:57;;;;;;;1.73;0.70;;;;;;;;;;5092622;28;20031;-73
2022/04/21 00:32:24;;;;;;;2.03;0.70;;;;;;;;;;5092688;28;20026;-73
2022/04/21 00:34:51;;;;;;;2.08;0.60;;;;;;;;;;5092731;28;20450;-73
2022/04/21 00:37:19;;;;;;;3.25;0.80;;;;;;;;;;5091950;28;20052;-75
2022/04/21 00:39:50;;;;;;;3.67;0.98;;;;;;;;;;5093476;28;20047;-74
2022/04/21 00:42:17;;;;;;;3.50;0.80;;;;;;;;;;5092629;28;20024;-73
2022/04/21 00:44:44;;;;;;;2.47;0.85;;;;;;;;;;5092866;28;20024;-73
2022/04/21 00:47:12;;;;;;;3.28;0.90;;;;;;;;;;5092512;28;20028;-73
2022/04/21 00:49:40;;;;;;;3.50;0.65;;;;;;;;;;5092326;28;20332;-73
2022/04/21 00:52:08;;;;;;;2.72;0.82;;;;;;;;;;5092375;28;20024;-73
2022/04/21 00:54:35;;;;;;;2.22;0.68;;;;;;;;;;5092461;28;20473;-73
2022/04/21 00:57:03;;;;;;;1.75;0.60;;;;;;;;;;5090855;28;20024;-74
2022/04/21 00:59:30;;;;;;;3.72;0.90;;;;;;;;;;5092292;28;20107;-74
2022/04/21 01:04:44;;;;;;;1.55;0.70;;;;;;;;;;5093329;28;20039;-74
2022/04/21 01:07:11;;;;;;;2.92;0.90;;;;;;;;;;5096480;28;20020;-74
2022/04/21 01:09:41;;;;;;;5.65;0.70;;;;;;;;;;5095093;28;20085;-73
2022/04/21 01:12:13;;;;;;;4.03;0.95;;;;;;;;;;5095163;28;20026;-73
2022/04/21 01:14:40;;;;;;;1.77;0.60;;;;;;;;;;5096353;28;20028;-74
2022/04/21 01:17:12;;;;;;;2.08;0.50;;;;;;;;;;5096265;28;20024;-73
2022/04/21 01:19:40;;;;;;;3.63;0.73;;;;;;;;;;5095078;28;20028;-74
2022/04/21 01:22:10;;;;;;;2.47;0.63;;;;;;;;;;5096274;28;20074;-74
2022/04/21 01:24:37;;;;;;;;;;;;;;;;;;5096813;28;20028;-74
2022/04/21 01:27:04;;;;;;;1.60;0.55;;;;;;;;;;5096281;28;19911;-74
2022/04/21 01:29:32;;;;;;;2.78;0.75;;;;;;;;;;5096159;28;20431;-74
2022/04/21 01:31:59;;;;;;;3.65;0.80;;;;;;;;;;5094810;28;20473;-74
2022/04/21 01:34:26;;;;;;;3.65;0.98;;;;;;;;;;5096074;28;20085;-74
2022/04/21 01:42:24;;;;;;;5.32;1.30;;;;;;;;;;5096090;28;20101;-72
2022/04/21 01:44:51;;;;;;;3.72;1.02;;;;;;;;;;5095847;28;20031;-71
2022/04/21 01:47:18;;;;;;;3.83;1.20;;;;;;;;;;5094346;28;20031;-73
2022/04/21 01:49:45;;;;;;;2.97;1.00;;;;;;;;;;5095436;28;20052;-73
2022/04/21 01:52:12;;;;;;;5.00;0.98;;;;;;;;;;5095758;28;20618;-73
2022/04/21 01:54:39;;;;;;;3.85;1.05;;;;;;;;;;5094283;28;20031;-73
2022/04/21 01:57:07;;;;;;;3.22;1.05;;;;;;;;;;5095720;28;20020;-74
2022/04/21 01:59:34;;;;;;;5.30;1.20;;;;;;;;;;5095476;28;20024;-73
2022/04/21 02:02:01;;;;;;;4.03;1.25;;;;;;;;;;5094350;28;20090;-73
2022/04/21 02:04:28;;;;;;;5.75;1.20;;;;;;;;;;5094045;28;20032;-73
2022/04/21 02:06:55;;;;;;;6.18;1.10;;;;;;;;;;5095517;28;20027;-72
2022/04/21 02:09:22;;;;;;;5.57;1.20;;;;;;;;;;5095264;28;20050;-73
2022/04/21 02:11:51;;;;;;;4.15;1.02;;;;;;;;;;5093859;28;20102;-73
2022/04/21 02:14:18;;;;;;;6.60;1.10;;;;;;;;;;5095202;28;20476;-73
2022/04/21 02:16:45;;;;;;;6.00;1.45;;;;;;;;;;5093150;28;20533;-73
2022/04/21 02:19:12;;;;;;;3.92;1.17;;;;;;;;;;5093770;28;20039;-73
2022/04/21 02:21:39;;;;;;;5.40;0.88;;;;;;;;;;5093850;28;20024;-73
2022/04/21 02:24:07;;;;;;;7.80;1.10;;;;;;;;;;5093613;28;20111;-73
2022/04/21 02:26:34;;;;;;;3.03;0.60;;;;;;;;;;5093706;28;20061;-73
2022/04/21 02:29:01;;;;;;;5.68;0.80;;;;;;;;;;5093558;28;20051;-73
2022/04/21 02:31:28;;;;;;;4.35;0.60;;;;;;;;;;5093658;28;20016;-75
2022/04/21 02:33:56;;;;;;;1.67;0.47;;;;;;;;;;5093545;28;20524;-74
2022/04/21 02:36:23;;;;;;;2.33;0.80;;;;;;;;;;5094961;28;20024;-74
2022/04/21 02:38:50;;;;;;;2.55;0.77;;;;;;;;;;5094801;28;20035;-73
2022/04/21 02:41:17;;;;;;;2.63;0.80;;;;;;;;;;5094801;28;20034;-74
2022/04/21 02:43:44;;;;;;;3.03;0.98;;;;;;;;;;5094808;28;20103;-73
2022/04/21 02:46:12;;;;;;;3.42;1.30;;;;;;;;;;5094629;28;20475;-74
2022/04/21 02:48:40;;;;;;;3.90;1.55;;;;;;;;;;5093074;28;20135;-74
2022/04/21 02:51:07;;;;;;;8.23;1.95;;;;;;;;;;5094628;28;20024;-73
2022/04/21 02:59:04;;;;;;;7.57;2.47;;;;;;;;;;5094551;28;20091;-74
2022/04/21 03:01:31;;;;;;;8.40;2.30;;;;;;;;;;5093010;28;20344;-73
2022/04/21 03:03:59;;;;;;;6.13;2.53;;;;;;;;;;5093013;28;20484;-73
2022/04/21 03:06:26;;;;;;;5.72;2.00;;;;;;;;;;5094289;28;20487;-73
2022/04/21 03:08:53;;;;;;;7.10;1.80;;;;;;;;;;5092961;28;20373;-73
2022/04/21 03:11:20;;;;;;;5.90;1.77;;;;;;;;;;5092729;28;20020;-74
2022/04/21 03:13:47;;;;;;;8.18;2.10;;;;;;;;;;5094203;28;20147;-74
2022/04/21 03:16:14;;;;;;;7.57;1.75;;;;;;;;;;5092707;28;20488;-74
2022/04/21 03:18:42;;;;;;;9.52;1.70;;;;;;;;;;5094108;28;20036;-74
2022/04/21 03:26:39;;;;;;;8.60;2.17;;;;;;;;;;5093934;28;20113;-73
2022/04/21 03:29:06;;;;;;;12.15;2.65;;;;;;;;;;5092621;28;20024;-74
2022/04/21 03:31:33;;;;;;;6.35;2.40;;;;;;;;;;5093720;28;20104;-74
2022/04/21 03:34:02;;;;;;;7.70;2.42;;;;;;;;;;5093805;28;20388;-75
2022/04/21 03:36:30;;;;;;;9.15;2.55;;;;;;;;;;5093635;28;20430;-74
2022/04/21 03:38:58;;;;;;;9.07;2.53;;;;;;;;;;5093628;28;20031;-74
2022/04/21 03:41:25;;;;;;;8.75;2.63;;;;;;;;;;5093513;28;20425;-75
2022/04/21 03:43:53;;;;;;;11.07;3.58;;;;;;;;;;5092240;28;20069;-75
2022/04/21 03:46:20;;;;;;;14.70;3.85;;;;;;;;;;5093312;28;20038;-76
2022/04/21 03:48:47;;;;;;;12.23;3.63;;;;;;;;;;5091779;28;20036;-76
2022/04/21 03:51:15;;;;;;;14.18;3.53;;;;;;;;;;5093243;28;20024;-75
2022/04/21 03:53:42;;;;;;;8.25;2.97;;;;;;;;;;5092029;28;20035;-77
2022/04/21 03:56:09;;;;;;;10.68;3.00;;;;;;;;;;5093198;28;20016;-76
2022/04/21 03:58:36;;;;;;;11.48;2.65;;;;;;;;;;5091893;28;20026;-75
2022/04/21 04:01:03;;;;;;;16.15;3.72;;;;;;;;;;5093221;28;20016;-74
2022/04/21 04:03:31;;;;;;;14.35;3.50;;;;;;;;;;5093075;28;20434;-74
2022/04/21 04:05:58;;;;;;;10.63;2.92;;;;;;;;;;5092987;28;20051;-74
2022/04/21 04:11:10;;;;;;;12.98;3.28;;;;;;;;;;5093032;28;20066;-74
2022/04/21 04:13:38;;;;;;;12.57;2.72;;;;;;;;;;5091527;28;20026;-75
2022/04/21 04:16:05;;;;;;;11.77;3.28;;;;;;;;;;5092896;28;20016;-75
2022/04/21 04:18:33;;;;;;;16.52;3.35;;;;;;;;;;5091451;28;20088;-74
2022/04/21 04:21:00;;;;;;;12.77;2.80;;;;;;;;;;5092846;28;20069;-75
2022/04/21 04:23:28;;;;;;;14.52;2.70;;;;;;;;;;5092735;28;20020;-75
2022/04/21 04:25:55;;;;;;;8.68;2.58;;;;;;;;;;5092735;28;20020;-74
2022/04/21 04:28:22;;;;;;;15.77;2.65;;;;;;;;;;5091109;28;20076;-75
2022/04/21 04:30:49;;;;;;;7.07;2.35;;;;;;;;;;5092605;28;20023;-74
2022/04/21 04:33:16;;;;;;;8.15;1.80;;;;;;;;;;5092611;28;20034;-74
2022/04/21 04:35:44;;;;;;;5.82;2.10;;;;;;;;;;5092603;28;20065;-73
2022/04/21 04:38:14;;;;;;;9.57;2.15;;;;;;;;;;5092503;28;20532;-74
2022/04/21 04:40:41;;;;;;;6.88;1.80;;;;;;;;;;5092223;28;20043;-73
2022/04/21 04:43:08;;;;;;;6.25;1.50;;;;;;;;;;5091102;28;20040;-74
2022/04/21 04:48:20;;;;;;;9.50;1.63;;;;;;;;;;5092311;28;20546;-73
2022/04/21 04:50:50;;;;;;;8.38;1.70;;;;;;;;;;5090937;28;20454;-73
2022/04/21 04:53:17;;;;;;;8.63;1.95;;;;;;;;;;5092337;28;20503;-73
2022/04/21 04:55:44;;;;;;;6.75;1.60;;;;;;;;;;5091088;28;20031;-73
2022/04/21 04:58:11;;;;;;;4.93;1.27;;;;;;;;;;5092218;28;20516;-73
2022/04/21 05:00:38;;;;;;;6.85;1.40;;;;;;;;;;5092406;28;20020;-73
2022/04/21 05:03:06;;;;;;;7.88;2.03;;;;;;;;;;5090907;28;20119;-73
2022/04/21 05:05:33;;;;;;;4.97;1.20;;;;;;;;;;5092154;28;20020;-73
2022/04/21 05:08:05;;;;;;;4.30;1.45;;;;;;;;;;5090845;28;20066;-73
2022/04/21 05:10:32;;;;;;;6.20;1.55;;;;;;;;;;5092109;28;20435;-73
2022/04/21 05:12:59;;;;;;;9.02;2.40;;;;;;;;;;5092124;28;20495;-73
2022/04/21 05:15:27;;;;;;;4.70;1.70;;;;;;;;;;5092247;28;20021;-74
2022/04/21 05:17:55;;;;;;;8.63;2.35;;;;;;;;;;5092072;28;20016;-73
2022/04/21 05:20:22;;;;;;;7.78;1.80;;;;;;;;;;5092087;28;20503;-73
2022/04/21 05:22:50;;;;;;;6.13;1.40;;;;;;;;;;5092296;28;20430;-74
2022/04/21 05:25:17;;;;;;;8.75;1.65;;;;;;;;;;5090687;28;20107;-73
2022/04/21 05:27:45;;;;;;;7.20;1.30;;;;;;;;;;5092102;28;20480;-74
2022/04/21 05:32:58;;;;;;;5.30;1.10;;;;;;;;;;5092081;28;20031;-74
2022/04/21 05:35:26;;;;;;;6.00;1.10;;;;;;;;;;5090580;28;20396;-73
2022/04/21 05:37:53;;;;;;;6.20;1.50;;;;;;;;;;5091863;28;20027;-73
2022/04/21 05:40:21;;;;;;;9.77;1.92;;;;;;;;;;5090556;28;20032;-72
2022/04/21 05:42:50;;;;;;;5.28;1.40;;;;;;;;;;5090655;28;20044;-72
2022/04/21 05:45:17;;;;;;;6.50;1.73;;;;;;;;;;5091773;28;20016;-72
2022/04/21 05:47:45;;;;;;;5.25;1.20;;;;;;;;;;5091706;28;20067;-73
2022/04/21 05:50:13;;;;;;;5.80;1.60;;;;;;;;;;5091398;28;20549;-72
2022/04/21 05:52:41;;;;;;;5.95;1.52;;;;;;;;;;5093781;28;20594;-72
2022/04/21 05:55:09;;;;;;;8.63;1.67;;;;;;;;;;5095470;28;20537;-72
2022/04/21 05:57:40;;;;;;;5.97;1.50;;;;;;;;;;5095642;28;20508;-72
2022/04/21 06:00:08;;;;;;;5.32;1.40;;;;;;;;;;5095453;28;20077;-72
2022/04/21 06:02:37;;;;;;;7.82;1.23;;;;;;;;;;5095592;28;20020;-72
2022/04/21 06:05:05;;;;;;;6.47;1.30;;;;;;;;;;5093949;28;20120;-73
2022/04/21 06:07:32;;;;;;;9.32;1.67;;;;;;;;;;5095448;28;20031;-72
2022/04/21 06:09:59;;;;;;;9.60;1.90;;;;;;;;;;5095175;28;20498;-72
2022/04/21 06:12:26;;;;;;;5.18;1.48;;;;;;;;;;5094036;28;20026;-73
2022/04/21 06:14:54;;;;;;;5.88;1.40;;;;;;;;;;5095146;28;20028;-73
2022/04/21 06:17:21;;;;;;;6.68;1.45;;;;;;;;;;5093893;28;20016;-74
2022/04/21 06:19:49;;;;;;;7.07;1.88;;;;;;;;;;5095076;28;20099;-74
2022/04/21 06:22:16;;;;;;;5.82;1.40;;;;;;;;;;5095153;28;20024;-74
2022/04/21 06:24:43;;;;;;;6.80;1.77;;;;;;;;;;5095177;28;20032;-73
2022/04/21 06:27:10;;;;;;;6.68;1.50;;;;;;;;;;5093701;28;20030;-72
2022/04/21 06:29:37;;;;;;;6.65;2.13;;;;;;;;;;5094895;28;20093;-72
2022/04/21 06:32:05;;;;;;;9.00;1.60;;;;;;;;;;5094908;28;20391;-73
2022/04/21 06:34:32;;;;;;;5.93;1.80;;;;;;;;;;5093486;28;20032;-73
2022/04/21 06:37:01;;;;;;;7.32;2.40;;;;;;;;;;5093265;28;20028;-72
2022/04/21 06:39:28;;;;;;;6.00;1.65;;;;;;;;;;5094794;28;20027;-72
2022/04/21 06:41:55;;;;;;;5.60;1.92;;;;;;;;;;5094659;28;20020;-73
2022/04/21 06:49:53;;;;;;;8.15;1.58;;;;;;;;;;5094512;28;20082;-73
2022/04/21 06:52:20;;;;;;;4.28;1.38;;;;;;;;;;5094441;28;20511;-73
2022/04/21 06:57:51;;;;;;;6.97;1.58;;;;;;;;;;5094708;28;20070;-73
2022/04/21 07:00:19;;;;;;;5.22;1.80;;;;;;;;;;5093068;28;20488;-74
2022/04/21 07:02:46;;;;;;;4.35;1.42;;;;;;;;;;5094078;28;20016;-74
2022/04/21 07:05:14;;;;;;;3.67;1.02;;;;;;;;;;5092767;28;20035;-74
2022/04/21 07:07:42;;;;;;;6.97;1.30;;;;;;;;;;5094241;28;20022;-73
2022/04/21 07:10:10;;;;;;;5.90;1.90;;;;;;;;;;5094132;28;20016;-73
2022/04/21 07:12:38;;;;;;;3.92;1.10;;;;;;;;;;5094134;28;20081;-73
2022/04/21 07:15:07;;;;;;;5.70;1.65;;;;;;;;;;5092702;28;20023;-73
2022/04/21 07:17:35;;;;;;;6.70;1.60;;;;;;;;;;5094031;28;20081;-73
2022/04/21 07:20:03;;;;;;;7.22;2.00;;;;;;;;;;5094102;28;20107;-73
2022/04/21 07:22:30;;;;;;;4.47;1.73;;;;;;;;;;5092660;28;20503;-73
2022/04/21 07:24:58;;;;;;;6.82;1.50;;;;;;;;;;5093938;28;20016;-73
2022/04/21 07:27:25;;;;;;;7.82;1.50;;;;;;;;;;5093796;28;20111;-73
2022/04/21 07:29:52;;;;;;;5.85;1.40;;;;;;;;;;5093781;28;20396;-75
2022/04/21 07:32:19;;;;;;;5.03;1.10;;;;;;;;;;5093558;28;20469;-75
2022/04/21 07:34:46;;;;;;;5.68;1.00;;;;;;;;;;5092328;28;20017;-73
2022/04/21 07:37:13;;;;;;;4.97;1.10;;;;;;;;;;5093559;28;20069;-72
2022/04/21 07:39:42;;;;;;;4.15;1.00;;;;;;;;;;5093598;28;20028;-73
2022/04/21 07:42:10;;;;;;;3.97;1.00;;;;;;;;;;5093440;28;20430;-73
2022/04/21 07:44:37;;;;;;;5.57;1.17;;;;;;;;;;5092302;28;20024;-74
2022/04/21 07:47:05;;;;;;;4.07;1.20;;;;;;;;;;5093387;28;20085;-74
2022/04/21 07:49:45;;;;;;;9.02;1.30;;;;;;;;;;5093228;28;20048;-75
2022/04/21 07:55:27;;;;;;;4.53;1.38;;;;;;;;;;5093443;28;20501;-73
2022/04/21 07:57:55;;;;;;;5.95;1.40;;;;;;;;;;5093448;28;20040;-75
2022/04/21 08:00:23;;;;;;;4.60;1.15;;;;;;;;;;5092006;28;20020;-73
2022/04/21 08:02:50;;;;;;;4.47;0.90;;;;;;;;;;5092016;28;20089;-72
2022/04/21 08:05:19;;;;;;;5.80;0.95;;;;;;;;;;5091922;28;20024;-72
2022/04/21 08:07:47;;;;;;;6.15;1.17;;;;;;;;;;5091940;28;20028;-72
2022/04/21 08:10:15;;;;;;;4.07;1.60;;;;;;;;;;5091649;28;20513;-73
2022/04/21 08:12:44;;;;;;;8.18;1.77;;;;;;;;;;5091814;28;20514;-74
2022/04/21 08:15:15;;;;;;;6.55;2.05;;;;;;;;;;5092399;28;20020;-73
2022/04/21 08:17:42;;;;;;;6.53;1.42;;;;;;;;;;5093144;28;20070;-74
2022/04/21 08:20:11;;;;;;;5.47;1.23;;;;;;;;;;5091675;28;20074;-73
2022/04/21 08:22:38;;;;;;;5.38;0.93;;;;;;;;;;5091587;28;20051;-73
2022/04/21 08:33:22;;;;;;;6.28;1.50;;;;;;;;;;5092855;28;20086;-74
2022/04/21 08:35:50;;;;;;;6.72;1.35;;;;;;;;;;5092916;28;20429;-73
2022/04/21 08:38:18;;;;;;;7.03;1.33;;;;;;;;;;5091462;28;20028;-73
2022/04/21 08:40:53;;;;;;;6.47;1.20;;;;;;;;;;5092651;28;20027;-74
2022/04/21 08:43:20;;;;;;;5.50;1.38;;;;;;;;;;5092770;28;20020;-74
2022/04/21 08:45:48;;;;;;;6.63;1.30;;;;;;;;;;5092733;28;20374;-74
2022/04/21 08:48:16;;;;;;;6.38;1.63;;;;;;;;;;5091144;28;20048;-74
2022/04/21 08:50:43;;;;;;;4.28;1.20;;;;;;;;;;5091111;28;20030;-73
2022/04/21 08:53:11;;;;;;;7.00;1.08;;;;;;;;;;5091234;28;20389;-73
2022/04/21 08:55:40;;;;;;;5.78;1.30;;;;;;;;;;5092624;28;20463;-74
2022/04/21 08:58:07;;;;;;;3.30;1.33;;;;;;;;;;5091159;28;20052;-74
2022/04/21 09:00:34;;;;;;;5.25;2.20;;;;;;;;;;5092400;28;20027;-73
2022/04/21 09:03:04;;;;;;;6.85;1.80;;;;;;;;;;5092405;28;20103;-73
2022/04/21 09:05:31;;;;;;;7.00;1.83;;;;;;;;;;5090987;28;20028;-72
2022/04/21 09:07:59;;;;;;;5.35;1.38;;;;;;;;;;5092366;28;20045;-71
2022/04/21 09:10:28;;;;;;;5.57;1.50;;;;;;;;;;5092259;28;20101;-73
2022/04/21 09:12:56;;;;;;;6.53;1.30;;;;;;;;;;5091086;28;20502;-73
2022/04/21 09:15:27;;;;;;;8.32;1.50;;;;;;;;;;5092297;28;20016;-74
2022/04/21 09:17:58;;;;;;;7.03;1.50;;;;;;;;;;5092370;28;20020;-74
2022/04/21 09:20:27;;;;;;;7.93;1.52;;;;;;;;;;5090911;28;20070;-74
2022/04/21 09:22:55;;;;;;;9.60;1.83;;;;;;;;;;5090970;28;20028;-74
2022/04/21 09:25:23;;;;;;;12.82;1.90;;;;;;;;;;5092478;28;20055;-74
2022/04/21 09:27:50;;;;;;;5.10;1.35;;;;;;;;;;5096212;28;20499;-74
2022/04/21 09:30:18;;;;;;;6.85;1.40;;;;;;;;;;5096040;28;20020;-74
2022/04/21 09:33:11;;;;;;;10.18;1.85;;;;;;;;;;5096073;28;20024;-74
2022/04/21 09:35:40;;;;;;;6.38;1.38;;;;;;;;;;5092731;28;20141;-73
2022/04/21 09:38:08;;;;;;;11.48;2.40;;;;;;;;;;5094695;28;20016;-74
2022/04/21 09:40:36;;;;;;;10.75;2.20;;;;;;;;;;5095909;28;20080;-74
2022/04/21 09:43:04;;;;;;;12.32;2.47;;;;;;;;;;5094598;28;20032;-74
2022/04/21 09:48:19;;;;;;;12.02;2.08;;;;;;;;;;5095786;28;20051;-74
2022/04/21 09:50:51;;;;;;;12.48;2.63;;;;;;;;;;5095824;28;20106;-75
2022/04/21 09:53:23;;;;;;;9.10;2.25;;;;;;;;;;5094471;28;20086;-74
2022/04/21 09:56:07;;;;;;;13.15;3.10;;;;;;;;;;5095815;28;20485;-74
2022/04/21 09:58:42;;;;;;;14.63;3.10;;;;;;;;;;5095809;28;20549;-75
2022/04/21 10:01:09;;;;;;;13.57;2.60;;;;;;;;;;5094357;28;20020;-75
2022/04/21 10:03:37;;;;;;;11.05;2.97;;;;;;;;;;5095546;28;20099;-76
2022/04/21 10:06:04;;;;;;;8.10;2.38;;;;;;;;;;5094238;28;20028;-75
2022/04/21 10:08:34;;;;;;;11.27;2.60;;;;;;;;;;5093990;28;20138;-76
2022/04/21 10:11:01;;;;;;;9.75;2.63;;;;;;;;;;5094165;28;20031;-77
2022/04/21 10:13:30;;;;;;;9.52;2.90;;;;;;;;;;5094328;28;20020;-76
2022/04/21 10:15:58;;;;;;;11.32;3.28;;;;;;;;;;5095490;28;20425;-76
2022/04/21 10:18:26;;;;;;;10.23;2.33;;;;;;;;;;5094132;28;20073;-76
2022/04/21 10:20:55;;;;;;;10.57;2.72;;;;;;;;;;5095350;28;20506;-76
2022/04/21 10:23:23;;;;;;;10.82;2.95;;;;;;;;;;5093915;28;20559;-77
2022/04/21 10:26:04;;;;;;;8.77;2.55;;;;;;;;;;5093966;28;20042;-77
2022/04/21 10:28:46;;;;;;;11.90;3.53;;;;;;;;;;5095148;28;20023;-77
2022/04/21 10:31:32;;;;;;;13.32;3.78;;;;;;;;;;5093817;28;20024;-77
2022/04/21 10:34:00;;;;;;;12.15;3.25;;;;;;;;;;5093793;28;20020;-78
2022/04/21 10:36:47;;;;;;;11.65;2.53;;;;;;;;;;5095000;28;20043;-77
2022/04/21 10:39:20;;;;;;;12.10;2.80;;;;;;;;;;5093074;28;20024;-76
2022/04/21 10:41:47;;;;;;;15.30;3.33;;;;;;;;;;5094864;28;20016;-75
2022/04/21 10:44:15;;;;;;;12.85;4.20;;;;;;;;;;5093609;28;20028;-74
2022/04/21 10:46:43;;;;;;;13.23;3.05;;;;;;;;;;5094797;28;20024;-74
2022/04/21 10:49:10;;;;;;;13.00;2.92;;;;;;;;;;5094592;28;20117;-74
2022/04/21 10:57:36;;;;;;;8.85;2.00;;;;;;;;;;5094384;28;20082;-74
2022/04/21 11:00:10;;;;;;;9.77;2.20;;;;;;;;;;5094660;28;20020;-74
2022/04/21 11:02:42;;;;;;;7.85;1.73;;;;;;;;;;5093281;28;20024;-74
2022/04/21 11:05:26;;;;;;;10.25;2.22;;;;;;;;;;5093023;28;20381;-73
2022/04/21 11:08:00;;;;;;;6.55;1.70;;;;;;;;;;5093106;28;20027;-73
2022/04/21 11:10:39;;;;;;;8.65;2.20;;;;;;;;;;5092907;28;20020;-73
2022/04/21 11:13:07;;;;;;;8.93;1.90;;;;;;;;;;5094283;28;20044;-74
2022/04/21 11:15:49;;;;;;;10.57;2.20;;;;;;;;;;5094312;28;20536;-74
2022/04/21 11:18:17;;;;;;;9.68;2.58;;;;;;;;;;5094165;28;20020;-73
2022/04/21 11:20:46;;;;;;;9.50;2.90;;;;;;;;;;5094171;28;20370;-74
2022/04/21 11:23:45;;;;;;;10.07;3.17;;;;;;;;;;5092785;28;20024;-74
2022/04/21 11:26:13;;;;;;;11.32;3.70;;;;;;;;;;5093945;28;20102;-74
2022/04/21 11:28:44;;;;;;;11.60;4.55;;;;;;;;;;5093920;28;20023;-74
2022/04/21 11:31:11;;;;;;;12.82;4.43;;;;;;;;;;5092701;28;20020;-74
2022/04/21 11:33:40;;;;;;;11.07;3.22;;;;;;;;;;5092547;28;20020;-73
2022/04/21 11:36:08;;;;;;;10.55;2.15;;;;;;;;;;5093841;28;20039;-72
2022/04/21 11:38:41;;;;;;;9.95;1.73;;;;;;;;;;5093912;28;20024;-72
2022/04/21 11:41:09;;;;;;;9.65;2.00;;;;;;;;;;5092456;28;20035;-72
2022/04/21 11:43:37;;;;;;;6.18;1.10;;;;;;;;;;5092277;28;20124;-71
2022/04/21 11:46:05;;;;;;;9.63;1.80;;;;;;;;;;5093704;28;20023;-72
2022/04/21 11:48:34;;;;;;;8.88;1.60;;;;;;;;;;5093322;28;20060;-72
2022/04/21 11:51:01;;;;;;;8.45;1.75;;;;;;;;;;5091500;28;20077;-72
2022/04/21 11:53:29;;;;;;;8.73;1.33;;;;;;;;;;5093588;28;20020;-72
2022/04/21 11:55:56;;;;;;;6.78;1.48;;;;;;;;;;5093492;28;20044;-72
2022/04/21 11:58:37;;;;;;;7.28;1.30;;;;;;;;;;5093402;28;20467;-72
2022/04/21 12:06:38;;;;;;;7.45;1.20;;;;;;;;;;5093256;28;20031;-73
2022/04/21 12:09:06;;;;;;;7.22;1.38;;;;;;;;;;5093489;28;20040;-73
2022/04/21 12:11:33;;;;;;;7.15;1.25;;;;;;;;;;5093137;28;20077;-73
2022/04/21 12:14:01;;;;;;;6.85;2.05;;;;;;;;;;5092655;28;20020;-73
2022/04/21 12:16:40;;;;;;;8.02;1.13;;;;;;;;;;5092052;28;20031;-73
2022/04/21 12:19:14;;;;;;;8.63;1.52;;;;;;;;;;5093158;28;20496;-73
2022/04/21 12:21:42;;;;;;;4.70;1.20;;;;;;;;;;5093085;28;20409;-73
2022/04/21 12:24:14;;;;;;;5.05;1.20;;;;;;;;;;5093186;28;20024;-72
2022/04/21 12:27:01;;;;;;;4.28;1.10;;;;;;;;;;5093014;28;20020;-73
2022/04/21 12:29:32;;;;;;;4.22;1.00;;;;;;;;;;5092755;28;20026;-72
2022/04/21 12:32:03;;;;;;;4.15;1.27;;;;;;;;;;5093040;28;20027;-73
2022/04/21 12:34:31;;;;;;;6.35;1.75;;;;;;;;;;5092864;28;20020;-73
2022/04/21 12:37:02;;;;;;;6.38;1.52;;;;;;;;;;5092908;28;20028;-73
2022/04/21 12:39:30;;;;;;;7.53;1.52;;;;;;;;;;5091755;28;20373;-73
2022/04/21 12:41:58;;;;;;;4.93;1.30;;;;;;;;;;5091412;28;20045;-73
2022/04/21 12:44:26;;;;;;;6.05;1.13;;;;;;;;;;5092652;28;20082;-73
2022/04/21 12:46:57;;;;;;;4.70;1.17;;;;;;;;;;5092726;28;20077;-73
2022/04/21 12:49:25;;;;;;;7.13;1.23;;;;;;;;;;5092498;28;20043;-72
2022/04/21 12:51:55;;;;;;;7.32;1.65;;;;;;;;;;5091281;28;20027;-72
2022/04/21 12:54:26;;;;;;;6.05;1.48;;;;;;;;;;5092587;28;20035;-73
2022/04/21 12:56:56;;;;;;;10.32;1.60;;;;;;;;;;5091324;28;20081;-72
2022/04/21 12:59:23;;;;;;;7.32;1.30;;;;;;;;;;5092605;28;20024;-73
2022/04/21 13:01:50;;;;;;;11.10;1.90;;;;;;;;;;5092330;28;20024;-73
2022/04/21 13:04:17;;;;;;;9.68;1.60;;;;;;;;;;5092486;28;20028;-73
2022/04/21 13:06:45;;;;;;;10.93;2.00;;;;;;;;;;5091501;28;20020;-73
2022/04/21 13:09:12;;;;;;;6.90;1.60;;;;;;;;;;5092416;28;20111;-73
2022/04/21 13:11:39;;;;;;;6.97;1.60;;;;;;;;;;5091094;28;20099;-73
2022/04/21 13:14:06;;;;;;;14.02;1.80;;;;;;;;;;5092439;28;20028;-73
2022/04/21 13:16:33;;;;;;;11.18;2.58;;;;;;;;;;5092304;28;20022;-73
2022/04/21 13:19:00;;;;;;;11.38;1.73;;;;;;;;;;5091142;28;20456;-73
2022/04/21 13:24:13;;;;;;;10.27;1.90;;;;;;;;;;5092647;28;20396;-73
2022/04/21 13:26:40;;;;;;;7.45;1.70;;;;;;;;;;5092339;28;20370;-73
2022/04/21 13:29:07;;;;;;;10.98;2.75;;;;;;;;;;5092305;28;20039;-73
2022/04/21 13:34:37;;;;;;;11.32;1.60;;;;;;;;;;5049940;28;20041;-73
2022/04/21 13:37:04;;;;;;;10.35;2.03;;;;;;;;;;5083862;28;20036;-73
2022/04/21 13:39:34;;;;;;;16.30;2.70;;;;;;;;;;5092211;28;20024;-73
2022/04/21 13:42:02;;;;;;;11.32;2.03;;;;;;;;;;5092200;28;20504;-73
2022/04/21 13:44:29;;;;;;;11.82;1.63;;;;;;;;;;5090820;28;20081;-73
2022/04/21 13:46:57;;;;;;;10.45;1.80;;;;;;;;;;5090755;28;20024;-73
2022/04/21 13:49:25;;;;;;;13.98;2.63;;;;;;;;;;5091859;28;20051;-74
2022/04/21 13:51:52;;;;;;;9.00;1.92;;;;;;;;;;5092267;28;20024;-73
2022/04/21 13:54:20;;;;;;;10.50;1.75;;;;;;;;;;5090960;28;20032;-73
2022/04/21 13:56:48;;;;;;;6.13;1.35;;;;;;;;;;5090763;28;20024;-73
2022/04/21 13:59:16;;;;;;;8.73;1.88;;;;;;;;;;5090810;28;20341;-73
2022/04/21 14:01:44;;;;;;;5.72;1.30;;;;;;;;;;5090781;28;20024;-73
2022/04/21 14:04:11;;;;;;;9.07;1.70;;;;;;;;;;5090704;28;20024;-73
2022/04/21 14:06:38;;;;;;;6.47;1.42;;;;;;;;;;5092077;28;20028;-73
2022/04/21 14:09:07;;;;;;;8.65;1.33;;;;;;;;;;5091941;28;20122;-73
2022/04/21 14:11:35;;;;;;;14.07;1.92;;;;;;;;;;5090679;28;20069;-73
2022/04/21 14:14:03;;;;;;;7.70;1.67;;;;;;;;;;5094561;28;20019;-73
2022/04/21 14:16:31;;;;;;;7.55;1.52;;;;;;;;;;5095594;28;20028;-73
2022/04/21 14:18:58;;;;;;;9.10;1.50;;;;;;;;;;5095665;28;20034;-73
2022/04/21 14:21:26;;;;;;;9.48;1.50;;;;;;;;;;5094177;28;20492;-73
2022/04/21 14:23:53;;;;;;;9.02;2.15;;;;;;;;;;5094132;28;20024;-73
2022/04/21 14:26:20;;;;;;;9.02;2.50;;;;;;;;;;5094112;28;20537;-73
2022/04/21 14:28:47;;;;;;;10.15;1.42;;;;;;;;;;5095239;28;20385;-74
2022/04/21 14:31:15;;;;;;;5.25;1.38;;;;;;;;;;5093955;28;20044;-74
2022/04/21 14:33:42;;;;;;;9.02;1.63;;;;;;;;;;5093833;28;20028;-74
2022/04/21 14:36:12;;;;;;;7.85;1.05;;;;;;;;;;5093878;28;20388;-72
2022/04/21 14:44:11;;;;;;;9.07;1.83;;;;;;;;;;5095112;28;20400;-73
2022/04/21 14:46:39;;;;;;;8.55;1.27;;;;;;;;;;5093674;28;20072;-74
2022/04/21 14:49:08;;;;;;;10.23;1.75;;;;;;;;;;5094631;28;20381;-72
2022/04/21 14:51:36;;;;;;;8.90;1.85;;;;;;;;;;5094824;28;20040;-73
2022/04/21 14:54:03;;;;;;;11.85;2.00;;;;;;;;;;5093414;28;20035;-73
2022/04/21 14:56:35;;;;;;;5.47;1.55;;;;;;;;;;5094751;28;20107;-73
2022/04/21 14:59:03;;;;;;;8.90;1.73;;;;;;;;;;5094807;28;20085;-74
2022/04/21 15:01:30;;;;;;;9.00;1.38;;;;;;;;;;5094633;28;20102;-73
2022/04/21 15:03:57;;;;;;;7.10;1.48;;;;;;;;;;5094498;28;20099;-74
2022/04/21 15:06:24;;;;;;;11.60;1.55;;;;;;;;;;5094554;28;20024;-73
2022/04/21 15:08:51;;;;;;;7.60;1.30;;;;;;;;;;5094352;28;20129;-73
2022/04/21 15:11:19;;;;;;;7.20;1.05;;;;;;;;;;5093099;28;20058;-73
2022/04/21 15:13:46;;;;;;;7.53;1.27;;;;;;;;;;5094369;28;20103;-73
2022/04/21 15:16:13;;;;;;;8.85;1.65;;;;;;;;;;5093002;28;20499;-74
2022/04/21 15:18:40;;;;;;;8.63;1.77;;;;;;;;;;5094280;28;20016;-73
2022/04/21 15:21:07;;;;;;;7.63;1.52;;;;;;;;;;5092877;28;20044;-73
2022/04/21 15:23:35;;;;;;;10.00;1.73;;;;;;;;;;5094092;28;20019;-73
2022/04/21 15:26:02;;;;;;;10.43;1.73;;;;;;;;;;5094122;28;20429;-73
2022/04/21 15:28:30;;;;;;;7.03;1.63;;;;;;;;;;5094135;28;20394;-73
2022/04/21 15:30:57;;;;;;;12.02;2.22;;;;;;;;;;5093991;28;20103;-73
2022/04/21 15:33:25;;;;;;;9.20;1.50;;;;;;;;;;5094007;28;20090;-74
2022/04/21 15:35:52;;;;;;;11.82;1.83;;;;;;;;;;5093958;28;20020;-73
2022/04/21 15:38:19;;;;;;;10.88;1.55;;;;;;;;;;5093890;28;20091;-73
2022/04/21 15:40:46;;;;;;;9.30;1.73;;;;;;;;;;5093914;28;20020;-73
2022/04/21 15:43:14;;;;;;;11.70;2.03;;;;;;;;;;5092494;28;20078;-73
2022/04/21 15:45:43;;;;;;;11.50;1.80;;;;;;;;;;5093821;28;20043;-74
2022/04/21 15:48:10;;;;;;;9.45;1.60;;;;;;;;;;5092254;28;20047;-74
2022/04/21 15:50:39;;;;;;;11.50;1.98;;;;;;;;;;5093716;28;20140;-73
2022/04/21 15:58:53;;;;;;;11.52;1.98;;;;;;;;;;5093613;28;20561;-74
2022/04/21 16:01:25;;;;;;;16.10;2.08;;;;;;;;;;5093544;28;20106;-74
2022/04/21 16:03:53;;;;;;;8.68;2.13;;;;;;;;;;5092324;28;20102;-74
2022/04/21 16:06:21;;;;;;;8.68;1.45;;;;;;;;;;5093444;28;20393;-74
2022/04/21 16:08:50;;;;;;;11.90;1.80;;;;;;;;;;5093342;28;20024;-74